Terminal Aerodrome Forecast
Issued by NWS

Home | Current Version | Previous Version | Text Only | Print | Product List | Glossary On
Versions: 1 2 3 4 5 6 7 8 9 10 11 12 13 14 15 16 17 18 19 20 21 22 23 24
000
FTUS43 KDVN 010400 AAB
TAFCID
TAF AMD
KCID 010449Z 0105/0124 33015G28KT P6SM -TSRA SCT020CB OVC080
      TEMPO 0105/0106 33025G38KT 2SM +TSRA OVC025CB
     FM010800 22010KT 6SM BR VCSH OVC012
     FM011500 27012KT P6SM BKN035=

USA.gov is the U.S. government's official web portal to all federal, state and local government web resources and services.